createdAt,value
2023-04-12T00:02:24.097Z,6.60
2023-04-12T00:04:55.482Z,3.08
2023-04-12T00:07:24.354Z,5.53
2023-04-12T00:09:51.648Z,4.05
2023-04-12T00:12:20.754Z,3.38
2023-04-12T00:14:48.786Z,3.58
2023-04-12T00:17:16.026Z,4.60
2023-04-12T00:19:43.568Z,5.35
2023-04-12T00:22:11.530Z,2.80
2023-04-12T00:24:41.291Z,3.20
2023-04-12T00:27:08.920Z,4.13
2023-04-12T00:29:36.078Z,4.45
2023-04-12T00:32:03.963Z,4.13
2023-04-12T00:34:31.965Z,3.75
2023-04-12T00:36:59.710Z,2.72
2023-04-12T00:39:26.548Z,3.10
2023-04-12T00:41:53.513Z,2.15
2023-04-12T00:44:20.805Z,3.47
2023-04-12T00:46:47.930Z,2.85
2023-04-12T00:49:15.533Z,2.75
2023-04-12T00:51:42.538Z,3.58
2023-04-12T00:54:09.592Z,4.25
2023-04-12T00:56:38.585Z,2.58
2023-04-12T00:59:07.269Z,3.08
2023-04-12T01:01:34.823Z,4.95
2023-04-12T01:04:05.007Z,2.42
2023-04-12T01:06:45.060Z,3.72
2023-04-12T01:09:41.966Z,4.72
2023-04-12T01:12:33.472Z,3.80
2023-04-12T01:15:12.284Z,2.58
2023-04-12T01:18:23.800Z,4.07
2023-04-12T01:21:15.589Z,3.90
2023-04-12T01:23:58.768Z,2.45
2023-04-12T01:26:45.284Z,2.90
2023-04-12T01:29:21.249Z,2.70
2023-04-12T01:32:01.647Z,3.35
2023-04-12T01:34:33.178Z,3.13
2023-04-12T01:37:03.274Z,4.38
2023-04-12T01:39:33.860Z,3.28
2023-04-12T01:42:00.800Z,3.35
2023-04-12T01:44:28.769Z,3.13
2023-04-12T01:46:57.022Z,4.07
2023-04-12T01:49:34.287Z,3.75
2023-04-12T01:52:09.875Z,2.35
2023-04-12T01:54:39.611Z,4.80
2023-04-12T01:57:09.360Z,3.35
2023-04-12T01:59:42.340Z,2.35
2023-04-12T02:04:39.486Z,2.88
2023-04-12T02:07:07.016Z,2.30
2023-04-12T02:09:40.043Z,2.75
2023-04-12T02:14:34.745Z,3.88
2023-04-12T02:17:04.976Z,3.53
2023-04-12T02:19:32.572Z,5.47
2023-04-12T02:21:59.362Z,3.85
2023-04-12T02:24:27.263Z,7.10
2023-04-12T02:26:55.069Z,8.05
2023-04-12T02:29:22.083Z,5.82
2023-04-12T02:31:48.853Z,4.63
2023-04-12T02:34:17.891Z,4.15
2023-04-12T02:36:49.322Z,7.15
2023-04-12T02:39:19.402Z,7.15
2023-04-12T02:41:46.214Z,4.65
2023-04-12T02:44:13.091Z,7.13
2023-04-12T02:46:39.896Z,4.30
2023-04-12T02:49:06.752Z,6.47
2023-04-12T02:51:33.576Z,7.78
2023-04-12T02:54:01.211Z,4.07
2023-04-12T02:56:29.815Z,7.45
2023-04-12T02:58:56.792Z,7.15
2023-04-12T03:01:23.747Z,4.78
2023-04-12T03:03:50.673Z,4.18
2023-04-12T03:06:17.507Z,5.90
2023-04-12T03:08:44.759Z,5.95
2023-04-12T03:11:11.519Z,4.85
2023-04-12T03:13:38.336Z,7.10
2023-04-12T03:16:24.985Z,4.30
2023-04-12T03:18:51.922Z,7.30
2023-04-12T03:21:18.969Z,4.88
2023-04-12T03:23:46.028Z,5.07
2023-04-12T03:26:12.894Z,5.28
2023-04-12T03:28:41.290Z,4.10
2023-04-12T03:31:08.231Z,5.53
2023-04-12T03:33:35.129Z,19.17
2023-04-12T03:36:02.111Z,24.88
2023-04-12T03:38:28.885Z,30.80
2023-04-12T03:40:55.680Z,32.28
2023-04-12T03:43:22.509Z,29.08
2023-04-12T03:45:49.623Z,26.45
2023-04-12T03:48:16.688Z,25.52
2023-04-12T03:50:46.095Z,23.73
2023-04-12T03:53:13.162Z,22.33
2023-04-12T03:55:40.492Z,17.23
2023-04-12T03:58:07.317Z,18.77
2023-04-12T04:00:34.205Z,22.88
2023-04-12T04:03:03.553Z,22.98
2023-04-12T04:05:31.358Z,17.05
2023-04-12T04:08:02.238Z,16.15
2023-04-12T04:10:29.152Z,17.25
2023-04-12T04:12:55.920Z,15.07
2023-04-12T04:15:22.817Z,14.25
2023-04-12T04:17:49.723Z,13.93
2023-04-12T04:20:17.856Z,12.88
2023-04-12T04:22:48.123Z,11.57
2023-04-12T04:25:16.005Z,9.90
2023-04-12T04:27:44.751Z,9.85
2023-04-12T04:30:12.438Z,7.40
2023-04-12T04:32:40.700Z,22.75
2023-04-12T04:35:08.550Z,7.22
2023-04-12T04:37:35.380Z,7.95
2023-04-12T04:40:08.219Z,8.23
2023-04-12T04:42:35.173Z,5.53
2023-04-12T04:45:05.355Z,7.05
2023-04-12T04:47:32.225Z,7.07
2023-04-12T04:50:00.374Z,6.63
2023-04-12T04:52:27.378Z,6.35
2023-04-12T04:54:57.595Z,7.55
2023-04-12T04:57:26.616Z,6.43
2023-04-12T04:59:53.370Z,9.50
2023-04-12T05:02:40.064Z,7.50
2023-04-12T05:05:08.606Z,7.75
2023-04-12T05:07:36.331Z,6.80
2023-04-12T05:10:06.937Z,6.10
2023-04-12T05:12:34.050Z,4.97
2023-04-12T05:17:31.862Z,8.38
2023-04-12T05:19:58.711Z,5.95
2023-04-12T05:22:25.879Z,6.30
2023-04-12T05:24:52.690Z,6.32
2023-04-12T05:27:19.491Z,9.32
2023-04-12T05:29:47.118Z,6.40
2023-04-12T05:32:14.528Z,8.00
2023-04-12T05:34:42.210Z,6.57
2023-04-12T05:37:09.025Z,8.45
2023-04-12T05:39:35.813Z,7.28
2023-04-12T05:42:02.681Z,7.15
2023-04-12T05:44:29.745Z,7.43
2023-04-12T05:46:56.494Z,5.55
2023-04-12T05:49:23.301Z,6.07
2023-04-12T05:51:50.137Z,3.80
2023-04-12T05:54:20.929Z,6.55
2023-04-12T05:56:47.735Z,6.47
2023-04-12T05:59:14.522Z,7.65
2023-04-12T06:01:44.652Z,5.75
2023-04-12T06:04:11.931Z,8.40
2023-04-12T06:06:38.953Z,5.90
2023-04-12T06:09:05.806Z,4.70
2023-04-12T06:11:35.769Z,6.10
2023-04-12T06:14:02.630Z,8.13
2023-04-12T06:16:29.848Z,4.70
2023-04-12T06:18:56.978Z,5.57
2023-04-12T06:21:25.412Z,5.22
2023-04-12T06:23:52.200Z,4.65
2023-04-12T06:26:19.050Z,4.53
2023-04-12T06:28:45.869Z,6.45
2023-04-12T06:31:12.877Z,6.13
2023-04-12T06:33:39.897Z,6.28
2023-04-12T06:36:07.527Z,8.40
2023-04-12T06:38:34.318Z,6.55
2023-04-12T06:41:01.142Z,7.40
2023-04-12T06:43:27.960Z,5.00
2023-04-12T06:45:56.898Z,6.78
2023-04-12T06:48:23.888Z,4.03
2023-04-12T06:50:51.189Z,4.60
2023-04-12T06:53:18.074Z,6.88
2023-04-12T06:55:44.941Z,6.03
2023-04-12T06:58:11.741Z,6.93
2023-04-12T07:00:38.522Z,6.10
2023-04-12T07:03:05.472Z,4.95
2023-04-12T07:05:32.330Z,8.48
2023-04-12T07:07:59.138Z,7.68
2023-04-12T07:10:26.410Z,5.57
2023-04-12T07:12:53.231Z,3.97
2023-04-12T07:15:20.162Z,17.77
2023-04-12T07:17:47.001Z,12.02
2023-04-12T07:20:13.882Z,6.30
2023-04-12T07:22:40.790Z,15.65
2023-04-12T07:25:10.706Z,8.45
2023-04-12T07:27:37.561Z,8.55
2023-04-12T07:30:04.881Z,10.52
2023-04-12T07:32:31.949Z,12.73
2023-04-12T07:34:59.175Z,13.52
2023-04-12T07:37:25.994Z,10.30
2023-04-12T07:39:52.928Z,6.82
2023-04-12T07:42:19.759Z,9.23
2023-04-12T07:44:46.592Z,5.35
2023-04-12T07:47:13.406Z,7.20
2023-04-12T07:49:41.337Z,9.95
2023-04-12T07:52:08.302Z,8.90
2023-04-12T07:54:35.031Z,5.47
2023-04-12T07:57:05.971Z,7.30
2023-04-12T07:59:32.862Z,7.80
2023-04-12T08:02:00.897Z,8.60
2023-04-12T08:04:30.577Z,5.68
2023-04-12T08:06:58.583Z,8.43
2023-04-12T08:09:25.776Z,6.47
2023-04-12T08:11:53.105Z,6.35
2023-04-12T08:14:21.497Z,8.50
2023-04-12T08:16:48.695Z,8.35
2023-04-12T08:19:15.486Z,6.25
2023-04-12T08:21:42.307Z,45.42
2023-04-12T08:24:09.146Z,26.70
2023-04-12T08:26:36.029Z,8.52
2023-04-12T08:29:03.209Z,6.10
2023-04-12T08:31:30.059Z,5.97
2023-04-12T08:33:57.082Z,5.65
2023-04-12T08:36:24.097Z,9.00
2023-04-12T08:38:52.558Z,10.00
2023-04-12T08:41:20.164Z,7.18
2023-04-12T08:43:47.738Z,7.32
2023-04-12T08:46:16.335Z,7.78
2023-04-12T08:48:54.079Z,9.73
2023-04-12T08:51:22.312Z,7.40
2023-04-12T08:53:49.133Z,7.63
2023-04-12T08:56:16.922Z,7.57
2023-04-12T08:58:50.799Z,5.53
2023-04-12T09:01:21.916Z,8.63
2023-04-12T09:03:49.062Z,4.75
2023-04-12T09:06:16.062Z,7.28
2023-04-12T09:08:54.607Z,6.28
2023-04-12T09:11:24.702Z,5.60
2023-04-12T09:13:51.787Z,4.72
2023-04-12T09:16:20.290Z,4.38
2023-04-12T09:18:51.561Z,7.90
2023-04-12T09:21:18.779Z,5.88
2023-04-12T09:24:02.458Z,7.10
2023-04-12T09:26:30.262Z,8.30
2023-04-12T09:28:57.449Z,10.18
2023-04-12T09:31:24.248Z,5.68
2023-04-12T09:33:51.052Z,5.90
2023-04-12T09:36:18.997Z,8.30
2023-04-12T09:39:01.791Z,4.85
2023-04-12T09:41:31.984Z,7.35
2023-04-12T09:44:00.450Z,4.72
2023-04-12T09:46:27.843Z,6.85
2023-04-12T09:49:00.631Z,9.48
2023-04-12T09:51:36.461Z,6.25
2023-04-12T09:54:06.388Z,6.10
2023-04-12T09:56:39.762Z,6.90
2023-04-12T09:59:07.551Z,7.50
2023-04-12T10:01:38.809Z,7.70
2023-04-12T10:04:07.806Z,4.95
2023-04-12T10:06:36.685Z,5.03
2023-04-12T10:09:08.578Z,6.22
2023-04-12T10:11:37.369Z,7.80
2023-04-12T10:14:06.024Z,3.97
2023-04-12T10:16:34.964Z,5.78
2023-04-12T10:19:04.058Z,4.90
2023-04-12T10:21:31.390Z,7.35
2023-04-12T10:23:58.506Z,5.47
2023-04-12T10:26:25.496Z,7.25
2023-04-12T10:29:33.595Z,5.63
2023-04-12T10:32:24.649Z,9.65
2023-04-12T10:34:54.568Z,13.05
2023-04-12T10:37:21.427Z,6.38
2023-04-12T10:39:54.872Z,7.88
2023-04-12T10:42:30.944Z,10.18
2023-04-12T10:45:23.828Z,11.75
2023-04-12T10:47:54.482Z,11.73
2023-04-12T10:50:30.144Z,19.35
2023-04-12T10:53:16.821Z,13.85
2023-04-12T10:55:44.785Z,14.85
2023-04-12T10:58:50.689Z,4.65
2023-04-12T11:01:18.696Z,3.75
2023-04-12T11:04:15.172Z,6.78
2023-04-12T11:06:58.523Z,4.38
2023-04-12T11:09:33.705Z,4.57
2023-04-12T11:12:08.814Z,5.95
2023-04-12T11:14:48.366Z,4.85
2023-04-12T11:17:15.672Z,4.97
2023-04-12T11:19:46.627Z,4.45
2023-04-12T11:22:19.001Z,2.90
2023-04-12T11:24:55.732Z,4.97
2023-04-12T11:27:24.509Z,4.28
2023-04-12T11:29:56.687Z,4.93
2023-04-12T11:32:28.616Z,5.03
2023-04-12T11:34:57.858Z,6.07
2023-04-12T11:37:27.011Z,3.63
2023-04-12T11:39:57.484Z,2.72
2023-04-12T11:42:27.618Z,3.45
2023-04-12T11:44:59.855Z,2.17
2023-04-12T11:47:30.317Z,3.05
2023-04-12T11:49:58.878Z,2.40
2023-04-12T11:52:33.473Z,1.95
2023-04-12T11:55:06.877Z,5.68
2023-04-12T11:57:34.723Z,2.80
2023-04-12T12:00:02.273Z,3.40
2023-04-12T12:02:33.278Z,3.65
2023-04-12T12:05:02.016Z,3.60
2023-04-12T12:07:29.728Z,3.28
2023-04-12T12:09:57.083Z,4.28
2023-04-12T12:12:24.153Z,1.85
2023-04-12T12:14:51.154Z,1.63
2023-04-12T12:17:17.911Z,2.47
2023-04-12T12:19:46.351Z,3.38
2023-04-12T12:22:20.651Z,3.03
2023-04-12T12:24:54.858Z,3.72
2023-04-12T12:27:37.528Z,2.38
2023-04-12T12:30:07.714Z,4.43
2023-04-12T12:32:37.880Z,4.43
2023-04-12T12:35:15.484Z,5.07
2023-04-12T12:37:52.227Z,3.95
2023-04-12T12:40:29.357Z,3.40
2023-04-12T12:42:56.515Z,2.15
2023-04-12T12:45:27.175Z,4.18
2023-04-12T12:48:03.030Z,3.45
2023-04-12T12:50:35.403Z,4.53
2023-04-12T12:53:03.729Z,1.90
2023-04-12T12:55:32.112Z,1.90
2023-04-12T13:00:29.831Z,1.88
2023-04-12T13:02:56.863Z,2.90
2023-04-12T13:05:24.087Z,2.88
2023-04-12T13:07:51.301Z,2.25
2023-04-12T13:10:18.136Z,2.80
2023-04-12T13:12:44.940Z,3.60
2023-04-12T13:15:22.281Z,1.63
2023-04-12T13:17:52.685Z,6.03
2023-04-12T13:20:19.787Z,3.08
2023-04-12T13:22:46.569Z,2.65
2023-04-12T13:25:13.372Z,4.93
2023-04-12T13:27:40.286Z,6.10
2023-04-12T13:30:08.313Z,3.72
2023-04-12T13:32:35.723Z,4.18
2023-04-12T13:35:04.026Z,5.10
2023-04-12T13:37:31.417Z,4.13
2023-04-12T13:39:58.237Z,5.47
2023-04-12T13:42:25.101Z,4.65
2023-04-12T13:44:51.893Z,3.53
2023-04-12T13:47:18.693Z,2.50
2023-04-12T13:49:45.971Z,3.85
2023-04-12T13:52:13.227Z,8.63
2023-04-12T13:54:41.031Z,5.05
2023-04-12T13:57:07.968Z,4.00
2023-04-12T13:59:35.130Z,3.10
2023-04-12T14:02:02.726Z,5.68
2023-04-12T14:04:31.161Z,2.92
2023-04-12T14:06:59.168Z,5.57
2023-04-12T14:09:28.691Z,3.42
2023-04-12T14:11:58.600Z,3.40
2023-04-12T14:14:27.516Z,6.65
2023-04-12T14:16:57.558Z,4.13
2023-04-12T14:19:24.708Z,4.85
2023-04-12T14:21:51.758Z,5.57
2023-04-12T14:24:19.632Z,3.95
2023-04-12T14:26:46.583Z,2.95
2023-04-12T14:29:13.605Z,5.30
2023-04-12T14:31:40.533Z,3.08
2023-04-12T14:34:08.888Z,3.78
2023-04-12T14:36:35.843Z,5.43
2023-04-12T14:39:03.947Z,4.35
2023-04-12T14:41:31.844Z,6.80
2023-04-12T14:44:02.113Z,3.83
2023-04-12T14:46:29.127Z,3.95
2023-04-12T14:48:57.195Z,5.18
2023-04-12T14:51:24.397Z,4.35
2023-04-12T14:53:51.390Z,10.18
2023-04-12T14:56:28.674Z,4.68
2023-04-12T14:58:57.142Z,3.58
2023-04-12T15:01:25.442Z,5.18
2023-04-12T15:03:53.446Z,4.85
2023-04-12T15:06:23.420Z,4.35
2023-04-12T15:08:54.535Z,4.95
2023-04-12T15:11:29.921Z,4.68
2023-04-12T15:13:57.146Z,5.70
2023-04-12T15:16:24.277Z,6.05
2023-04-12T15:18:51.935Z,7.75
2023-04-12T15:21:19.096Z,7.72
2023-04-12T15:23:47.219Z,6.03
2023-04-12T15:26:14.319Z,3.92
2023-04-12T15:28:41.816Z,3.92
2023-04-12T15:31:09.465Z,5.47
2023-04-12T15:33:36.948Z,5.65
2023-04-12T15:36:04.980Z,4.32
2023-04-12T15:38:32.168Z,6.90
2023-04-12T15:41:01.386Z,6.97
2023-04-12T15:43:28.979Z,5.00
2023-04-12T15:45:56.327Z,6.25
2023-04-12T15:48:25.220Z,5.70
2023-04-12T15:50:54.195Z,5.38
2023-04-12T15:53:27.257Z,6.78
2023-04-12T15:58:29.408Z,6.97
2023-04-12T16:00:56.223Z,5.75
2023-04-12T16:03:23.379Z,6.03
2023-04-12T16:05:54.099Z,6.50
2023-04-12T16:08:22.033Z,8.02
2023-04-12T16:10:50.498Z,20.40
2023-04-12T16:13:18.209Z,9.70
2023-04-12T16:15:45.570Z,9.00
2023-04-12T16:18:12.827Z,5.53
2023-04-12T16:20:42.958Z,7.60
2023-04-12T16:23:09.858Z,8.65
2023-04-12T16:25:36.669Z,8.48
2023-04-12T16:28:04.078Z,11.38
2023-04-12T16:30:34.955Z,15.50
2023-04-12T16:33:01.966Z,16.77
2023-04-12T16:35:28.936Z,14.23
2023-04-12T16:37:55.801Z,11.38
2023-04-12T16:40:24.425Z,12.25
2023-04-12T16:42:51.560Z,17.83
2023-04-12T16:45:19.584Z,12.40
2023-04-12T16:47:47.432Z,16.55
2023-04-12T16:50:15.286Z,8.45
2023-04-12T16:52:42.252Z,6.38
2023-04-12T16:55:13.148Z,5.13
2023-04-12T16:57:41.974Z,6.10
2023-04-12T17:00:19.253Z,8.38
2023-04-12T17:02:52.625Z,9.65
2023-04-12T17:05:21.446Z,14.32
2023-04-12T17:07:51.696Z,7.63
2023-04-12T17:10:22.592Z,7.43
2023-04-12T17:12:58.132Z,8.52
2023-04-12T17:15:28.462Z,9.10
2023-04-12T17:18:12.567Z,6.07
2023-04-12T17:20:41.378Z,16.38
2023-04-12T17:23:11.873Z,14.20
2023-04-12T17:25:39.052Z,10.25
2023-04-12T17:28:07.876Z,5.97
2023-04-12T17:30:34.870Z,6.57
2023-04-12T17:33:02.385Z,8.73
2023-04-12T17:35:29.547Z,7.68
2023-04-12T17:37:57.510Z,9.00
2023-04-12T17:40:26.772Z,12.88
2023-04-12T17:42:55.181Z,6.55
2023-04-12T17:45:23.576Z,8.40
2023-04-12T17:47:50.763Z,7.82
2023-04-12T17:50:17.654Z,15.60
2023-04-12T17:53:05.902Z,15.48
2023-04-12T17:55:36.254Z,8.38
2023-04-12T17:58:04.717Z,7.38
2023-04-12T18:00:32.115Z,7.55
2023-04-12T18:02:59.035Z,11.85
2023-04-12T18:05:26.125Z,9.40
2023-04-12T18:07:53.001Z,6.07
2023-04-12T18:10:23.146Z,6.22
2023-04-12T18:12:50.260Z,7.28
2023-04-12T18:15:18.170Z,5.00
2023-04-12T18:17:45.461Z,8.15
2023-04-12T18:20:13.845Z,8.43
2023-04-12T18:22:41.092Z,9.43
2023-04-12T18:25:08.934Z,9.85
2023-04-12T18:27:36.586Z,6.85
2023-04-12T18:30:04.939Z,5.45
2023-04-12T18:32:32.276Z,26.05
2023-04-12T18:34:59.089Z,12.48
2023-04-12T18:37:27.097Z,13.50
2023-04-12T18:39:55.306Z,13.02
2023-04-12T18:42:22.250Z,18.95
2023-04-12T18:44:49.118Z,9.25
2023-04-12T18:47:15.952Z,8.50
2023-04-12T18:49:43.196Z,8.02
2023-04-12T18:52:10.048Z,12.15
2023-04-12T18:54:36.893Z,5.97
2023-04-12T18:57:03.786Z,6.43
2023-04-12T18:59:31.044Z,3.80
2023-04-12T19:01:58.177Z,3.70
2023-04-12T19:04:25.155Z,3.78
2023-04-12T19:06:52.534Z,5.75
2023-04-12T19:09:19.435Z,5.05
2023-04-12T19:11:46.394Z,6.55
2023-04-12T19:14:13.223Z,6.47
2023-04-12T19:16:40.271Z,8.10
2023-04-12T19:19:07.152Z,12.30
2023-04-12T19:21:34.124Z,6.80
2023-04-12T19:24:01.198Z,7.45
2023-04-12T19:26:28.925Z,3.88
2023-04-12T19:28:58.713Z,6.15
2023-04-12T19:31:26.188Z,4.30
2023-04-12T19:33:55.487Z,3.65
2023-04-12T19:36:24.406Z,4.35
2023-04-12T19:38:51.264Z,3.13
2023-04-12T19:41:19.710Z,5.35
2023-04-12T19:43:47.756Z,5.22
2023-04-12T19:46:15.197Z,5.25
2023-04-12T19:48:42.575Z,7.82
2023-04-12T19:51:09.755Z,5.35
2023-04-12T19:53:36.784Z,5.40
2023-04-12T19:56:06.916Z,12.40
2023-04-12T19:58:34.562Z,26.50
2023-04-12T20:01:02.771Z,20.25
2023-04-12T20:03:39.681Z,9.95
2023-04-12T20:06:06.564Z,5.60
2023-04-12T20:08:33.552Z,4.82
2023-04-12T20:11:01.862Z,5.13
2023-04-12T20:13:30.661Z,5.57
2023-04-12T20:16:00.798Z,6.38
2023-04-12T20:18:28.384Z,4.65
2023-04-12T20:20:57.928Z,4.72
2023-04-12T20:23:26.043Z,5.65
2023-04-12T20:25:53.626Z,4.70
2023-04-12T20:28:21.828Z,5.13
2023-04-12T20:30:49.726Z,11.00
2023-04-12T20:33:18.067Z,10.68
2023-04-12T20:35:45.804Z,5.10
2023-04-12T20:38:13.569Z,5.45
2023-04-12T20:40:40.778Z,5.50
2023-04-12T20:43:08.735Z,4.85
2023-04-12T20:45:35.806Z,7.78
2023-04-12T20:48:03.087Z,6.28
2023-04-12T20:50:30.470Z,4.95
2023-04-12T20:52:58.663Z,4.30
2023-04-12T20:55:32.773Z,9.13
2023-04-12T20:58:04.379Z,4.78
2023-04-12T21:00:33.254Z,8.90
2023-04-12T21:03:02.790Z,5.97
2023-04-12T21:05:33.896Z,6.78
2023-04-12T21:08:02.432Z,5.13
2023-04-12T21:10:30.375Z,5.63
2023-04-12T21:13:02.166Z,8.38
2023-04-12T21:15:30.313Z,5.18
2023-04-12T21:17:57.762Z,7.63
2023-04-12T21:20:25.361Z,7.53
2023-04-12T21:22:53.791Z,5.10
2023-04-12T21:25:21.219Z,6.00
2023-04-12T21:27:49.342Z,5.68
2023-04-12T21:30:16.604Z,5.88
2023-04-12T21:32:44.177Z,5.05
2023-04-12T21:35:16.612Z,7.22
2023-04-12T21:37:43.404Z,7.17
2023-04-12T21:40:12.838Z,6.68
2023-04-12T21:42:41.239Z,5.93
2023-04-12T21:45:10.490Z,10.07
2023-04-12T21:47:40.747Z,12.60
2023-04-12T21:50:10.051Z,17.67
2023-04-12T21:52:37.348Z,8.10
2023-04-12T21:55:05.705Z,11.45
2023-04-12T21:57:33.818Z,6.10
2023-04-12T22:00:02.231Z,6.82
2023-04-12T22:02:29.672Z,5.68
2023-04-12T22:04:56.776Z,8.10
2023-04-12T22:07:23.942Z,7.25
2023-04-12T22:09:53.492Z,6.13
2023-04-12T22:12:21.477Z,5.93
2023-04-12T22:14:49.686Z,9.00
2023-04-12T22:17:18.746Z,4.68
2023-04-12T22:19:45.744Z,3.58
2023-04-12T22:22:15.481Z,3.83
2023-04-12T22:24:42.935Z,4.40
2023-04-12T22:27:09.738Z,2.97
2023-04-12T22:29:38.013Z,3.38
2023-04-12T22:32:05.037Z,3.08
2023-04-12T22:34:32.732Z,2.97
2023-04-12T22:36:59.785Z,4.72
2023-04-12T22:39:27.050Z,3.05
2023-04-12T22:41:57.247Z,2.97
2023-04-12T22:44:26.422Z,3.10
2023-04-12T22:46:55.017Z,3.70
2023-04-12T22:49:28.441Z,1.85
2023-04-12T22:51:56.771Z,2.70
2023-04-12T22:54:25.141Z,3.95
2023-04-12T22:56:52.157Z,3.53
2023-04-12T22:59:22.817Z,2.70
2023-04-12T23:01:50.087Z,3.03
2023-04-12T23:04:17.431Z,4.55
2023-04-12T23:06:44.728Z,2.75
2023-04-12T23:09:12.899Z,3.58
2023-04-12T23:11:41.102Z,2.30
2023-04-12T23:14:09.043Z,4.60
2023-04-12T23:16:36.024Z,3.65
2023-04-12T23:19:06.310Z,3.65
2023-04-12T23:21:34.898Z,2.60
2023-04-12T23:24:01.938Z,2.20
2023-04-12T23:26:28.709Z,2.58
2023-04-12T23:28:55.481Z,2.05
2023-04-12T23:31:22.253Z,6.43
2023-04-12T23:33:50.558Z,2.25
2023-04-12T23:36:17.358Z,3.00
2023-04-12T23:38:44.348Z,5.13
2023-04-12T23:41:12.436Z,7.13
2023-04-12T23:43:39.420Z,8.57
2023-04-12T23:46:06.777Z,11.32
2023-04-12T23:48:33.595Z,14.73
2023-04-12T23:51:00.385Z,13.48
2023-04-12T23:53:27.200Z,11.95
2023-04-12T23:55:54.259Z,9.55
2023-04-12T23:58:21.618Z,6.32
